createdAt,value
2022-11-22T00:01:11.816Z,85.10
2022-11-22T00:03:39.851Z,85.19
2022-11-22T00:06:08.080Z,85.67
2022-11-22T00:08:36.180Z,86.48
2022-11-22T00:11:05.546Z,86.52
2022-11-22T00:13:33.557Z,87.16
2022-11-22T00:16:03.388Z,88.06
2022-11-22T00:18:32.195Z,88.52
2022-11-22T00:21:06.007Z,88.95
2022-11-22T00:23:34.038Z,89.76
2022-11-22T00:26:02.422Z,89.32
2022-11-22T00:28:31.885Z,89.75
2022-11-22T00:30:59.878Z,89.36
2022-11-22T00:33:27.896Z,89.46
2022-11-22T00:35:55.856Z,88.84
2022-11-22T00:38:23.884Z,88.14
2022-11-22T00:40:52.028Z,88.13
2022-11-22T00:43:20.117Z,88.16
2022-11-22T00:45:49.632Z,87.91
2022-11-22T00:48:17.666Z,87.67
2022-11-22T00:50:45.719Z,87.46
2022-11-22T00:53:13.754Z,87.76
2022-11-22T00:55:41.815Z,87.59
2022-11-22T00:58:09.840Z,87.73
2022-11-22T01:00:38.093Z,87.69
2022-11-22T01:03:07.754Z,88.32
2022-11-22T01:05:35.810Z,88.80
2022-11-22T01:08:03.827Z,89.32
2022-11-22T01:10:31.892Z,89.28
2022-11-22T01:13:00.125Z,89.19
2022-11-22T01:15:28.234Z,89.90
2022-11-22T01:17:56.257Z,90.20
2022-11-22T01:20:26.117Z,90.69
2022-11-22T01:22:54.130Z,90.67
2022-11-22T01:25:22.158Z,90.89
2022-11-22T01:27:51.161Z,90.53
2022-11-22T01:30:19.480Z,90.47
2022-11-22T01:32:47.517Z,89.98
2022-11-22T01:35:15.532Z,90.29
2022-11-22T01:37:44.931Z,90.22
2022-11-22T01:40:13.252Z,90.33
2022-11-22T01:42:45.199Z,90.40
2022-11-22T01:45:47.797Z,90.81
2022-11-22T01:48:25.468Z,91.01
2022-11-22T01:50:58.751Z,91.37
2022-11-22T01:53:32.064Z,91.36
2022-11-22T01:56:02.404Z,91.58
2022-11-22T01:58:33.354Z,92.19
2022-11-22T02:01:02.071Z,92.12
2022-11-22T02:03:33.561Z,92.04
2022-11-22T02:06:03.061Z,92.27
2022-11-22T02:08:39.122Z,92.07
2022-11-22T02:11:09.226Z,92.75
2022-11-22T02:13:41.745Z,92.82
2022-11-22T02:16:11.331Z,93.17
2022-11-22T02:18:40.053Z,93.58
2022-11-22T02:21:09.290Z,93.03
2022-11-22T02:23:51.221Z,93.36
2022-11-22T02:26:20.701Z,93.39
2022-11-22T02:28:49.710Z,93.39
2022-11-22T02:31:39.210Z,92.67
2022-11-22T02:34:07.581Z,92.91
2022-11-22T02:36:39.899Z,92.89
2022-11-22T02:39:10.704Z,93.12
2022-11-22T02:41:40.995Z,93.02
2022-11-22T02:44:10.696Z,93.74
2022-11-22T02:46:48.302Z,93.85
2022-11-22T02:49:18.618Z,94.26
2022-11-22T02:51:47.010Z,94.61
2022-11-22T02:54:15.293Z,95.49
2022-11-22T02:56:44.929Z,95.89
2022-11-22T02:59:13.031Z,96.37
2022-11-22T03:01:41.629Z,97.22
2022-11-22T03:04:09.633Z,97.82
2022-11-22T03:06:37.643Z,98.18
2022-11-22T03:09:05.846Z,98.42
2022-11-22T03:11:33.925Z,99.54
2022-11-22T03:14:03.276Z,100.00
2022-11-22T03:16:31.882Z,100.00
2022-11-22T03:18:59.900Z,100.00
2022-11-22T03:21:27.976Z,100.00
2022-11-22T03:23:56.211Z,100.00
2022-11-22T03:26:24.911Z,100.00
2022-11-22T03:28:52.938Z,100.00
2022-11-22T03:31:22.353Z,100.00
2022-11-22T03:33:50.457Z,100.00
2022-11-22T03:36:18.693Z,100.00
2022-11-22T03:38:46.720Z,100.00
2022-11-22T03:41:14.863Z,100.00
2022-11-22T03:43:42.884Z,100.00
2022-11-22T03:46:16.804Z,100.00
2022-11-22T03:48:46.710Z,100.00
2022-11-22T03:51:15.271Z,100.00
2022-11-22T03:53:43.338Z,100.00
2022-11-22T03:56:11.517Z,100.00
2022-11-22T03:58:39.630Z,100.00
2022-11-22T04:01:10.853Z,100.00
2022-11-22T04:03:42.976Z,100.00
2022-11-22T04:06:12.464Z,100.00
2022-11-22T04:08:40.618Z,100.00
2022-11-22T04:11:08.682Z,100.00
2022-11-22T04:13:54.611Z,100.00
2022-11-22T04:16:22.705Z,100.00
2022-11-22T04:18:50.803Z,100.00
2022-11-22T04:21:34.431Z,100.00
2022-11-22T04:24:20.762Z,100.00
2022-11-22T04:26:49.503Z,100.00
2022-11-22T04:29:17.806Z,100.00
2022-11-22T04:32:03.204Z,100.00
2022-11-22T04:34:31.506Z,100.00
2022-11-22T04:37:01.069Z,100.00
2022-11-22T04:39:29.691Z,100.00
2022-11-22T04:42:12.311Z,100.00
2022-11-22T04:44:43.514Z,100.00
2022-11-22T04:47:13.319Z,100.00
2022-11-22T04:49:41.380Z,100.00
2022-11-22T04:52:28.985Z,100.00
2022-11-22T04:54:57.042Z,100.00
2022-11-22T04:57:25.056Z,100.00
2022-11-22T04:59:53.238Z,100.00
2022-11-22T05:02:21.263Z,100.00
2022-11-22T05:04:50.750Z,100.00
2022-11-22T05:07:20.533Z,100.00
2022-11-22T05:09:48.612Z,100.00
2022-11-22T05:12:16.604Z,100.00
2022-11-22T05:14:44.666Z,100.00
2022-11-22T05:17:13.526Z,100.00
2022-11-22T05:19:46.446Z,100.00
2022-11-22T05:22:17.459Z,100.00
2022-11-22T05:24:45.911Z,100.00
2022-11-22T05:27:13.984Z,100.00
2022-11-22T05:29:42.063Z,100.00
2022-11-22T05:32:10.058Z,100.00
2022-11-22T05:34:38.199Z,100.00
2022-11-22T05:37:06.307Z,100.00
2022-11-22T05:39:34.409Z,100.00
2022-11-22T05:42:06.047Z,100.00
2022-11-22T05:44:34.153Z,100.00
2022-11-22T05:47:02.244Z,100.00
2022-11-22T05:49:30.609Z,100.00
2022-11-22T05:51:58.894Z,100.00
2022-11-22T05:54:26.982Z,100.00
2022-11-22T05:56:54.954Z,100.00
2022-11-22T05:59:24.455Z,100.00
2022-11-22T06:01:52.607Z,100.00
2022-11-22T06:04:20.956Z,100.00
2022-11-22T06:06:49.113Z,100.00
2022-11-22T06:09:17.317Z,100.00
2022-11-22T06:11:45.312Z,98.93
2022-11-22T06:14:13.449Z,98.45
2022-11-22T06:16:42.897Z,98.86
2022-11-22T06:19:11.198Z,97.11
2022-11-22T06:21:39.291Z,96.63
2022-11-22T06:24:08.327Z,97.62
2022-11-22T06:26:39.421Z,96.64
2022-11-22T06:29:07.944Z,94.67
2022-11-22T06:31:36.003Z,93.87
2022-11-22T06:34:06.176Z,93.29
2022-11-22T06:36:36.181Z,93.30
2022-11-22T06:39:04.907Z,93.58
2022-11-22T06:41:34.990Z,94.75
2022-11-22T06:44:06.883Z,95.32
2022-11-22T06:46:35.900Z,95.64
2022-11-22T06:49:05.428Z,95.01
2022-11-22T06:51:33.932Z,93.99
2022-11-22T06:54:02.080Z,93.37
2022-11-22T06:56:31.705Z,91.17
2022-11-22T06:59:02.890Z,90.54
2022-11-22T07:01:31.861Z,89.86
2022-11-22T07:04:01.079Z,91.20
2022-11-22T07:06:32.044Z,90.26
2022-11-22T07:09:01.333Z,89.29
2022-11-22T07:11:31.519Z,88.80
2022-11-22T07:14:07.198Z,88.24
2022-11-22T07:16:37.377Z,87.83
2022-11-22T07:19:06.295Z,87.24
2022-11-22T07:21:37.642Z,86.37
2022-11-22T07:24:07.207Z,86.83
2022-11-22T07:26:35.357Z,85.27
2022-11-22T07:29:03.337Z,83.91
2022-11-22T07:31:31.370Z,82.80
2022-11-22T07:33:59.571Z,82.16
2022-11-22T07:36:29.624Z,82.45
2022-11-22T07:38:59.625Z,82.42
2022-11-22T07:41:27.812Z,81.73
2022-11-22T07:43:55.948Z,81.76
2022-11-22T07:46:26.553Z,82.06
2022-11-22T07:48:54.589Z,82.40
2022-11-22T07:51:22.686Z,81.96
2022-11-22T07:53:50.776Z,81.61
2022-11-22T07:56:20.536Z,81.10
2022-11-22T07:58:48.945Z,81.08
2022-11-22T08:01:19.337Z,80.23
2022-11-22T08:03:47.655Z,80.58
2022-11-22T08:06:17.068Z,79.34
2022-11-22T08:08:45.517Z,79.39
2022-11-22T08:11:13.930Z,84.09
2022-11-22T08:13:44.634Z,85.78
2022-11-22T08:16:15.267Z,86.32
2022-11-22T08:18:46.865Z,80.82
2022-11-22T08:21:16.387Z,76.95
2022-11-22T08:23:45.895Z,75.26
2022-11-22T08:26:16.522Z,75.42
2022-11-22T08:28:46.190Z,74.83
2022-11-22T08:31:16.788Z,73.91
2022-11-22T08:33:44.811Z,73.26
2022-11-22T08:36:13.743Z,73.94
2022-11-22T08:38:42.753Z,73.78
2022-11-22T08:41:11.562Z,72.76
2022-11-22T08:43:39.754Z,72.51
2022-11-22T08:46:09.714Z,72.60
2022-11-22T08:48:39.439Z,70.66
2022-11-22T08:51:09.406Z,69.86
2022-11-22T08:53:39.296Z,69.61
2022-11-22T08:56:09.870Z,63.83
2022-11-22T08:58:38.939Z,64.25
2022-11-22T09:01:09.991Z,65.78
2022-11-22T09:03:40.029Z,64.41
2022-11-22T09:09:22.146Z,65.28
2022-11-22T09:11:46.082Z,63.54
2022-11-22T09:14:14.340Z,64.83
2022-11-22T09:16:43.721Z,64.89
2022-11-22T09:19:11.970Z,65.27
2022-11-22T09:21:39.988Z,65.39
2022-11-22T09:24:08.330Z,63.26
2022-11-22T09:26:36.395Z,61.91
2022-11-22T09:29:05.417Z,64.41
2022-11-22T09:31:33.762Z,64.21
2022-11-22T09:34:03.241Z,63.59
2022-11-22T09:36:32.188Z,63.36
2022-11-22T09:39:00.370Z,63.91
2022-11-22T09:41:48.751Z,63.29
2022-11-22T09:44:24.660Z,63.45
2022-11-22T09:46:55.791Z,64.55
2022-11-22T09:49:30.315Z,66.24
2022-11-22T09:52:08.657Z,66.62
2022-11-22T09:54:42.800Z,66.55
2022-11-22T09:57:18.675Z,66.86
2022-11-22T09:59:50.744Z,65.88
2022-11-22T10:02:24.586Z,64.27
2022-11-22T10:04:57.827Z,61.58
2022-11-22T10:07:38.563Z,60.80
2022-11-22T10:10:13.038Z,60.79
2022-11-22T10:12:48.910Z,60.92
2022-11-22T10:15:33.019Z,63.01
2022-11-22T10:18:05.742Z,61.53
2022-11-22T10:20:45.683Z,62.28
2022-11-22T10:23:19.699Z,62.17
2022-11-22T10:25:53.008Z,62.71
2022-11-22T10:28:30.999Z,62.57
2022-11-22T10:31:05.912Z,63.09
2022-11-22T10:33:44.228Z,64.12
2022-11-22T10:36:33.596Z,62.94
2022-11-22T10:39:16.876Z,63.64
2022-11-22T10:41:55.839Z,63.11
2022-11-22T10:44:34.728Z,63.13
2022-11-22T10:47:13.399Z,65.79
2022-11-22T10:49:53.739Z,63.56
2022-11-22T10:52:35.510Z,62.71
2022-11-22T10:55:19.123Z,63.30
2022-11-22T10:57:56.016Z,63.99
2022-11-22T11:00:26.036Z,63.40
2022-11-22T11:03:23.814Z,63.34
2022-11-22T11:11:40.029Z,63.72
2022-11-22T11:14:17.704Z,62.87
2022-11-22T11:16:46.603Z,63.53
2022-11-22T11:19:19.428Z,63.75
2022-11-22T11:21:49.782Z,64.64
2022-11-22T11:24:19.900Z,64.97
2022-11-22T11:26:54.826Z,64.80
2022-11-22T11:29:37.922Z,65.99
2022-11-22T11:32:09.729Z,66.40
2022-11-22T11:34:38.640Z,66.40
2022-11-22T11:37:07.539Z,67.31
2022-11-22T11:39:41.900Z,66.01
2022-11-22T11:42:27.933Z,65.63
2022-11-22T11:44:56.708Z,65.79
2022-11-22T11:47:34.616Z,65.90
2022-11-22T11:50:02.949Z,65.96
2022-11-22T11:52:31.750Z,64.35
2022-11-22T11:55:03.403Z,64.71
2022-11-22T11:57:34.930Z,64.27
2022-11-22T12:00:04.961Z,64.46
2022-11-22T12:02:40.960Z,63.32
2022-11-22T12:05:27.696Z,63.82
2022-11-22T12:07:56.013Z,64.63
2022-11-22T12:10:46.582Z,64.05
2022-11-22T12:13:21.735Z,64.50
2022-11-22T12:15:58.957Z,64.67
2022-11-22T12:18:39.957Z,65.08
2022-11-22T12:21:20.838Z,65.76
2022-11-22T12:24:13.273Z,65.70
2022-11-22T12:26:47.333Z,66.03
2022-11-22T12:29:16.838Z,66.69
2022-11-22T12:31:50.774Z,66.42
2022-11-22T12:34:26.117Z,66.93
2022-11-22T12:37:00.502Z,66.03
2022-11-22T12:39:30.181Z,66.62
2022-11-22T12:42:03.982Z,66.46
2022-11-22T12:44:38.735Z,66.77
2022-11-22T12:47:13.182Z,66.95
2022-11-22T12:49:44.935Z,67.40
2022-11-22T12:52:19.394Z,68.38
2022-11-22T12:54:59.392Z,69.28
2022-11-22T12:57:37.840Z,68.74
2022-11-22T13:00:14.084Z,69.38
2022-11-22T13:02:48.511Z,69.10
2022-11-22T13:05:21.571Z,69.16
2022-11-22T13:07:57.479Z,70.47
2022-11-22T13:10:35.325Z,69.96
2022-11-22T13:13:07.649Z,70.56
2022-11-22T13:15:40.683Z,71.12
2022-11-22T13:18:11.027Z,71.70
2022-11-22T13:20:43.537Z,71.45
2022-11-22T13:23:30.803Z,71.61
2022-11-22T13:26:13.256Z,71.84
2022-11-22T13:28:45.922Z,71.92
2022-11-22T13:31:20.380Z,72.54
2022-11-22T13:33:59.553Z,73.31
2022-11-22T13:36:46.384Z,73.29
2022-11-22T13:39:20.229Z,72.92
2022-11-22T13:41:54.491Z,73.41
2022-11-22T13:44:39.384Z,74.02
2022-11-22T13:47:45.230Z,74.13
2022-11-22T13:50:53.547Z,73.29
2022-11-22T13:53:33.570Z,73.89
2022-11-22T13:56:59.703Z,73.25
2022-11-22T13:59:28.191Z,72.10
2022-11-22T14:02:03.069Z,72.73
2022-11-22T14:04:41.656Z,73.35
2022-11-22T14:07:28.855Z,71.65
2022-11-22T14:09:58.675Z,71.52
2022-11-22T14:12:39.908Z,72.06
2022-11-22T14:15:30.892Z,72.02
2022-11-22T14:18:16.622Z,72.59
2022-11-22T14:21:00.317Z,71.92
2022-11-22T14:23:39.098Z,72.16
2022-11-22T14:26:22.095Z,72.20
2022-11-22T14:29:25.802Z,72.49
2022-11-22T14:31:57.328Z,72.12
2022-11-22T14:34:28.866Z,72.28
2022-11-22T14:37:31.815Z,72.92
2022-11-22T14:40:16.266Z,72.94
2022-11-22T14:42:50.893Z,72.42
2022-11-22T14:45:24.222Z,73.29
2022-11-22T14:48:01.281Z,73.09
2022-11-22T14:50:35.126Z,73.14
2022-11-22T14:53:18.714Z,73.67
2022-11-22T14:55:49.240Z,73.09
2022-11-22T14:58:23.454Z,73.54
2022-11-22T15:01:12.261Z,74.65
2022-11-22T15:09:11.238Z,75.13
2022-11-22T15:09:20.993Z,75.91
2022-11-22T15:10:59.164Z,76.94
2022-11-22T15:13:48.291Z,77.09
2022-11-22T15:57:27.472Z,83.61
2022-11-22T15:59:57.153Z,84.80
2022-11-22T16:02:27.795Z,85.34
2022-11-22T16:06:08.004Z,84.89
2022-11-22T16:07:49.417Z,85.07
2022-11-22T16:10:21.508Z,86.37
2022-11-22T16:12:51.550Z,87.08
2022-11-22T16:15:30.449Z,87.06
2022-11-22T16:18:08.956Z,87.17
2022-11-22T16:20:38.033Z,88.05
2022-11-22T16:23:14.240Z,88.98
2022-11-22T16:25:44.216Z,90.26
2022-11-22T16:28:35.222Z,91.15
2022-11-22T16:31:17.328Z,90.67
2022-11-22T16:33:46.202Z,90.52
2022-11-22T16:36:16.107Z,90.62
2022-11-22T16:38:45.142Z,91.08
2022-11-22T16:41:18.334Z,91.22
2022-11-22T16:43:49.489Z,91.31
2022-11-22T16:46:18.143Z,90.90
2022-11-22T16:48:46.319Z,90.86
2022-11-22T16:51:17.082Z,91.50
2022-11-22T16:53:47.303Z,92.41
2022-11-22T16:56:21.212Z,92.00
2022-11-22T16:58:51.948Z,91.90
2022-11-22T17:01:22.774Z,90.77
2022-11-22T17:03:53.782Z,90.55
2022-11-22T17:06:25.083Z,92.16
2022-11-22T17:08:54.682Z,92.48
2022-11-22T17:11:25.074Z,91.42
2022-11-22T17:13:55.318Z,92.33
2022-11-22T17:16:23.480Z,93.23
2022-11-22T17:18:53.099Z,94.43
2022-11-22T17:21:27.865Z,94.67
2022-11-22T17:24:00.829Z,95.42
2022-11-22T17:26:30.035Z,95.03
2022-11-22T17:28:59.712Z,94.74
2022-11-22T17:31:30.140Z,94.06
2022-11-22T17:33:59.958Z,95.05
2022-11-22T17:36:30.703Z,95.95
2022-11-22T17:38:59.775Z,96.10
2022-11-22T17:41:29.202Z,96.31
2022-11-22T17:43:57.709Z,97.07
2022-11-22T17:46:27.586Z,97.04
2022-11-22T17:48:58.068Z,96.63
2022-11-22T17:51:26.860Z,96.25
2022-11-22T17:53:55.814Z,96.58
2022-11-22T17:56:24.024Z,97.27
2022-11-22T17:58:52.444Z,97.44
2022-11-22T18:01:23.156Z,96.66
2022-11-22T18:03:52.725Z,96.84
2022-11-22T18:06:22.165Z,97.54
2022-11-22T18:08:50.627Z,97.34
2022-11-22T18:11:19.252Z,96.85
2022-11-22T18:13:47.308Z,95.94
2022-11-22T18:16:18.262Z,96.32
2022-11-22T18:19:02.286Z,95.70
2022-11-22T18:21:33.884Z,97.52
2022-11-22T18:24:02.594Z,97.18
2022-11-22T18:26:39.332Z,97.78
2022-11-22T18:29:40.704Z,97.91
2022-11-22T18:31:56.960Z,98.26
2022-11-22T18:34:26.019Z,99.48
2022-11-22T18:37:03.853Z,99.70
2022-11-22T18:39:36.120Z,98.90
2022-11-22T18:42:05.988Z,98.98
2022-11-22T18:44:34.410Z,99.37
2022-11-22T18:47:03.054Z,100.00
2022-11-22T18:49:32.242Z,100.00
2022-11-22T18:52:02.570Z,100.00
2022-11-22T18:54:31.011Z,100.00
2022-11-22T18:56:59.329Z,100.00
2022-11-22T18:59:27.606Z,99.73
2022-11-22T19:01:55.627Z,99.62
2022-11-22T19:04:24.526Z,100.00
2022-11-22T19:06:52.750Z,100.00
2022-11-22T19:09:22.512Z,100.00
2022-11-22T19:11:56.944Z,100.00
2022-11-22T19:14:27.139Z,100.00
2022-11-22T19:16:55.550Z,100.00
2022-11-22T19:19:24.389Z,100.00
2022-11-22T19:21:52.431Z,100.00
2022-11-22T19:24:21.992Z,100.00
2022-11-22T19:26:50.194Z,100.00
2022-11-22T19:29:18.537Z,100.00
2022-11-22T19:31:46.724Z,100.00
2022-11-22T19:34:15.399Z,100.00
2022-11-22T19:36:43.940Z,100.00
2022-11-22T19:39:14.666Z,100.00
2022-11-22T19:41:45.287Z,100.00
2022-11-22T19:44:13.328Z,100.00
2022-11-22T19:46:41.726Z,100.00
2022-11-22T19:49:11.260Z,100.00
2022-11-22T19:51:39.393Z,100.00
2022-11-22T19:54:08.430Z,100.00
2022-11-22T19:56:38.512Z,100.00
2022-11-22T19:59:10.482Z,100.00
2022-11-22T20:01:39.838Z,100.00
2022-11-22T20:04:08.505Z,100.00
2022-11-22T20:06:37.630Z,100.00
2022-11-22T20:09:10.310Z,100.00
2022-11-22T20:11:39.666Z,100.00
2022-11-22T20:14:10.280Z,100.00
2022-11-22T20:16:41.397Z,100.00
2022-11-22T20:19:09.759Z,100.00
2022-11-22T20:21:38.745Z,100.00
2022-11-22T20:24:08.064Z,100.00
2022-11-22T20:26:36.630Z,100.00
2022-11-22T20:29:06.845Z,100.00
2022-11-22T20:31:37.992Z,100.00
2022-11-22T20:34:06.769Z,100.00
2022-11-22T20:36:36.127Z,100.00
2022-11-22T20:39:10.034Z,100.00
2022-11-22T20:41:40.142Z,100.00
2022-11-22T20:44:08.575Z,100.00
2022-11-22T20:46:38.955Z,100.00
2022-11-22T20:49:07.215Z,100.00
2022-11-22T20:51:38.765Z,100.00
2022-11-22T20:54:10.931Z,100.00
2022-11-22T20:56:39.730Z,100.00
2022-11-22T20:59:08.088Z,100.00
2022-11-22T21:01:38.701Z,100.00
2022-11-22T21:04:07.590Z,100.00
2022-11-22T21:06:35.934Z,100.00
2022-11-22T21:09:05.237Z,100.00
2022-11-22T21:11:33.847Z,100.00
2022-11-22T21:14:03.020Z,100.00
2022-11-22T21:16:32.665Z,100.00
2022-11-22T21:19:05.216Z,100.00
2022-11-22T21:21:36.479Z,100.00
2022-11-22T21:24:07.129Z,100.00
2022-11-22T21:26:35.708Z,100.00
2022-11-22T21:29:05.542Z,100.00
2022-11-22T21:31:33.676Z,100.00
2022-11-22T21:34:03.217Z,100.00
2022-11-22T21:36:31.298Z,100.00
2022-11-22T21:38:59.344Z,100.00
2022-11-22T21:41:42.541Z,100.00
2022-11-22T21:44:11.064Z,100.00
2022-11-22T21:46:39.587Z,100.00
2022-11-22T21:49:09.243Z,100.00
2022-11-22T21:51:37.456Z,100.00
2022-11-22T21:54:06.522Z,100.00
2022-11-22T21:56:35.526Z,100.00
2022-11-22T21:59:03.702Z,100.00
2022-11-22T22:01:32.270Z,100.00
2022-11-22T22:04:00.408Z,100.00
2022-11-22T22:06:30.360Z,100.00
2022-11-22T22:08:58.430Z,100.00
2022-11-22T22:11:26.514Z,100.00
2022-11-22T22:13:55.399Z,100.00
2022-11-22T22:16:26.026Z,100.00
2022-11-22T22:18:54.334Z,100.00
2022-11-22T22:21:22.499Z,100.00
2022-11-22T22:23:53.547Z,100.00
2022-11-22T22:26:21.681Z,100.00
2022-11-22T22:28:49.729Z,100.00
2022-11-22T22:31:21.884Z,100.00
2022-11-22T22:33:51.286Z,100.00
2022-11-22T22:36:20.135Z,100.00
2022-11-22T22:38:48.235Z,100.00
2022-11-22T22:41:18.262Z,100.00
2022-11-22T22:43:48.162Z,100.00
2022-11-22T22:46:18.056Z,100.00
2022-11-22T22:48:47.422Z,100.00
2022-11-22T22:51:17.723Z,100.00
2022-11-22T22:53:46.582Z,100.00
2022-11-22T22:56:16.497Z,100.00
2022-11-22T22:58:46.182Z,100.00
2022-11-22T23:01:17.604Z,100.00
2022-11-22T23:03:48.704Z,100.00
2022-11-22T23:06:17.430Z,100.00
2022-11-22T23:08:47.685Z,100.00
2022-11-22T23:11:17.767Z,100.00
2022-11-22T23:13:47.744Z,100.00
2022-11-22T23:16:16.732Z,100.00
2022-11-22T23:18:46.278Z,100.00
2022-11-22T23:21:16.716Z,100.00
2022-11-22T23:23:44.901Z,100.00
2022-11-22T23:26:14.138Z,100.00
2022-11-22T23:28:42.210Z,100.00
2022-11-22T23:31:13.629Z,100.00
2022-11-22T23:33:42.664Z,100.00
2022-11-22T23:36:13.275Z,100.00
2022-11-22T23:38:42.131Z,100.00
2022-11-22T23:41:13.242Z,100.00
2022-11-22T23:43:41.545Z,100.00
2022-11-22T23:46:16.193Z,100.00
2022-11-22T23:48:44.820Z,100.00
2022-11-22T23:51:14.062Z,100.00
2022-11-22T23:53:42.638Z,100.00
2022-11-22T23:56:15.100Z,100.00
2022-11-22T23:58:46.532Z,100.00
